ヤクーツク の空港の天気 - METARとTAF

ヤクーツク空港 ( UEEE / YKS ) - ロシア ヤクーツク
飛行場実況気象(Metar)
観測時間05/25 10:30 YAKT (05/25 01:30 UTC)
風向・風速南西 5m/s
視程10km以上
天気現象
なし
気温22℃
湿度27%
気圧1009hPa
METARUEEE 250130Z 22005MPS CAVOK 22/02 Q1009 R23L/09//60 NOSIG RMK QFE748
過去の天気等 Google飛行場航空写真 Wunderground天気予報

過去48時間のMETAR

飛行場予報(TAF)
発表時間: 5/25 08:00 YAKT (5/24 23:00 UTC)
予報対象時間: 25日9時 YAKT ~ 26日15時 YAKT
風向・風速南南西 3m/s 瞬間風速 8m/s
視程10km以上
なし
TAF UEEE 242300Z 2500/2606 20003G08MPS CAVOK